sensor_id;sensor_type;location;lat;lon;timestamp;P1;durP1;ratioP1;P2;durP2;ratioP2
86335;SDS011;77070;0.000;0.000;2024-03-22T00:00:02;10.40;;;5.50;;
86335;SDS011;77070;0.000;0.000;2024-03-22T00:02:32;12.30;;;6.20;;
86335;SDS011;77070;0.000;0.000;2024-03-22T00:04:59;10.20;;;6.40;;
86335;SDS011;77070;0.000;0.000;2024-03-22T00:07:26;10.50;;;6.60;;
86335;SDS011;77070;0.000;0.000;2024-03-22T00:09:53;18.60;;;9.20;;
86335;SDS011;77070;0.000;0.000;2024-03-22T00:12:20;14.90;;;7.90;;
86335;SDS011;77070;0.000;0.000;2024-03-22T00:14:47;9.20;;;6.20;;
86335;SDS011;77070;0.000;0.000;2024-03-22T00:17:14;11.60;;;6.50;;
86335;SDS011;77070;0.000;0.000;2024-03-22T00:19:41;14.60;;;7.60;;
86335;SDS011;77070;0.000;0.000;2024-03-22T00:22:08;13.50;;;6.80;;
86335;SDS011;77070;0.000;0.000;2024-03-22T00:24:36;15.70;;;8.00;;
86335;SDS011;77070;0.000;0.000;2024-03-22T00:27:03;20.20;;;9.50;;
86335;SDS011;77070;0.000;0.000;2024-03-22T00:29:31;19.80;;;9.60;;
86335;SDS011;77070;0.000;0.000;2024-03-22T00:31:58;16.20;;;7.20;;
86335;SDS011;77070;0.000;0.000;2024-03-22T00:34:25;11.00;;;6.10;;
86335;SDS011;77070;0.000;0.000;2024-03-22T00:36:52;9.60;;;5.40;;
86335;SDS011;77070;0.000;0.000;2024-03-22T00:39:19;11.40;;;6.50;;
86335;SDS011;77070;0.000;0.000;2024-03-22T00:41:46;15.60;;;8.50;;
86335;SDS011;77070;0.000;0.000;2024-03-22T00:44:13;13.10;;;6.80;;
86335;SDS011;77070;0.000;0.000;2024-03-22T00:46:40;13.30;;;6.00;;
86335;SDS011;77070;0.000;0.000;2024-03-22T00:49:26;10.70;;;6.00;;
86335;SDS011;77070;0.000;0.000;2024-03-22T00:51:53;12.10;;;6.50;;
86335;SDS011;77070;0.000;0.000;2024-03-22T00:54:22;11.10;;;5.60;;
86335;SDS011;77070;0.000;0.000;2024-03-22T00:56:49;9.30;;;5.40;;
86335;SDS011;77070;0.000;0.000;2024-03-22T00:59:16;12.60;;;6.30;;
86335;SDS011;77070;0.000;0.000;2024-03-22T01:01:44;13.50;;;7.40;;
86335;SDS011;77070;0.000;0.000;2024-03-22T01:04:11;18.10;;;7.60;;
86335;SDS011;77070;0.000;0.000;2024-03-22T01:06:38;17.20;;;10.00;;
86335;SDS011;77070;0.000;0.000;2024-03-22T01:09:06;19.10;;;9.90;;
86335;SDS011;77070;0.000;0.000;2024-03-22T01:11:53;17.50;;;10.10;;
86335;SDS011;77070;0.000;0.000;2024-03-22T01:14:20;14.50;;;9.30;;
86335;SDS011;77070;0.000;0.000;2024-03-22T01:16:47;19.70;;;10.70;;
86335;SDS011;77070;0.000;0.000;2024-03-22T01:19:14;18.90;;;10.60;;
86335;SDS011;77070;0.000;0.000;2024-03-22T01:21:41;17.30;;;9.90;;
86335;SDS011;77070;0.000;0.000;2024-03-22T01:24:08;15.20;;;9.60;;
86335;SDS011;77070;0.000;0.000;2024-03-22T01:26:35;18.70;;;10.40;;
86335;SDS011;77070;0.000;0.000;2024-03-22T01:29:02;16.30;;;8.50;;
86335;SDS011;77070;0.000;0.000;2024-03-22T01:31:29;15.60;;;9.30;;
86335;SDS011;77070;0.000;0.000;2024-03-22T01:33:56;16.90;;;9.60;;
86335;SDS011;77070;0.000;0.000;2024-03-22T01:36:24;15.20;;;9.40;;
86335;SDS011;77070;0.000;0.000;2024-03-22T01:38:51;18.10;;;10.00;;
86335;SDS011;77070;0.000;0.000;2024-03-22T01:41:18;15.30;;;9.10;;
86335;SDS011;77070;0.000;0.000;2024-03-22T01:43:45;22.60;;;11.40;;
86335;SDS011;77070;0.000;0.000;2024-03-22T01:46:12;17.40;;;10.00;;
86335;SDS011;77070;0.000;0.000;2024-03-22T01:48:39;17.40;;;9.00;;
86335;SDS011;77070;0.000;0.000;2024-03-22T01:51:06;18.80;;;9.10;;
86335;SDS011;77070;0.000;0.000;2024-03-22T01:53:33;15.80;;;9.40;;
86335;SDS011;77070;0.000;0.000;2024-03-22T01:56:02;12.40;;;7.90;;
86335;SDS011;77070;0.000;0.000;2024-03-22T01:58:29;16.40;;;9.70;;
86335;SDS011;77070;0.000;0.000;2024-03-22T02:00:56;18.30;;;10.80;;
86335;SDS011;77070;0.000;0.000;2024-03-22T02:03:22;19.20;;;10.00;;
86335;SDS011;77070;0.000;0.000;2024-03-22T02:05:50;16.60;;;9.30;;
86335;SDS011;77070;0.000;0.000;2024-03-22T02:08:16;15.20;;;9.10;;
86335;SDS011;77070;0.000;0.000;2024-03-22T02:10:44;15.30;;;7.30;;
86335;SDS011;77070;0.000;0.000;2024-03-22T02:13:12;15.60;;;7.90;;
86335;SDS011;77070;0.000;0.000;2024-03-22T02:15:39;17.20;;;9.50;;
86335;SDS011;77070;0.000;0.000;2024-03-22T02:18:06;18.20;;;10.30;;
86335;SDS011;77070;0.000;0.000;2024-03-22T02:20:32;16.60;;;10.10;;
86335;SDS011;77070;0.000;0.000;2024-03-22T02:22:59;18.10;;;9.70;;
86335;SDS011;77070;0.000;0.000;2024-03-22T02:25:26;17.90;;;10.00;;
86335;SDS011;77070;0.000;0.000;2024-03-22T02:27:53;20.80;;;10.70;;
86335;SDS011;77070;0.000;0.000;2024-03-22T02:30:20;15.90;;;8.70;;
86335;SDS011;77070;0.000;0.000;2024-03-22T02:32:47;19.60;;;10.60;;
86335;SDS011;77070;0.000;0.000;2024-03-22T02:35:14;15.60;;;9.10;;
86335;SDS011;77070;0.000;0.000;2024-03-22T02:37:41;19.30;;;9.60;;
86335;SDS011;77070;0.000;0.000;2024-03-22T02:40:08;10.60;;;6.70;;
86335;SDS011;77070;0.000;0.000;2024-03-22T02:42:35;14.10;;;8.20;;
86335;SDS011;77070;0.000;0.000;2024-03-22T02:45:03;16.10;;;9.80;;
86335;SDS011;77070;0.000;0.000;2024-03-22T02:47:30;18.80;;;10.60;;
86335;SDS011;77070;0.000;0.000;2024-03-22T02:49:57;16.20;;;8.50;;
86335;SDS011;77070;0.000;0.000;2024-03-22T02:52:24;12.70;;;9.00;;
86335;SDS011;77070;0.000;0.000;2024-03-22T02:54:51;16.00;;;9.70;;
86335;SDS011;77070;0.000;0.000;2024-03-22T02:57:18;18.00;;;10.30;;
86335;SDS011;77070;0.000;0.000;2024-03-22T02:59:46;16.10;;;9.50;;
86335;SDS011;77070;0.000;0.000;2024-03-22T03:02:13;19.60;;;10.70;;
86335;SDS011;77070;0.000;0.000;2024-03-22T03:04:40;15.30;;;9.60;;
86335;SDS011;77070;0.000;0.000;2024-03-22T03:07:07;14.10;;;8.10;;
86335;SDS011;77070;0.000;0.000;2024-03-22T03:09:34;16.30;;;9.20;;
86335;SDS011;77070;0.000;0.000;2024-03-22T03:12:01;13.40;;;6.90;;
86335;SDS011;77070;0.000;0.000;2024-03-22T03:14:29;18.20;;;10.60;;
86335;SDS011;77070;0.000;0.000;2024-03-22T03:16:56;17.70;;;9.80;;
86335;SDS011;77070;0.000;0.000;2024-03-22T03:19:23;18.30;;;10.40;;
86335;SDS011;77070;0.000;0.000;2024-03-22T03:21:50;21.50;;;10.60;;
86335;SDS011;77070;0.000;0.000;2024-03-22T03:24:17;12.20;;;6.70;;
86335;SDS011;77070;0.000;0.000;2024-03-22T03:26:44;20.00;;;11.40;;
86335;SDS011;77070;0.000;0.000;2024-03-22T03:29:10;16.40;;;10.80;;
86335;SDS011;77070;0.000;0.000;2024-03-22T03:31:38;18.70;;;10.40;;
86335;SDS011;77070;0.000;0.000;2024-03-22T03:34:05;18.60;;;10.40;;
86335;SDS011;77070;0.000;0.000;2024-03-22T03:36:32;16.70;;;9.50;;
86335;SDS011;77070;0.000;0.000;2024-03-22T03:38:59;17.40;;;9.60;;
86335;SDS011;77070;0.000;0.000;2024-03-22T03:41:25;20.60;;;10.60;;
86335;SDS011;77070;0.000;0.000;2024-03-22T03:43:52;21.00;;;10.90;;
86335;SDS011;77070;0.000;0.000;2024-03-22T03:46:19;16.20;;;7.60;;
86335;SDS011;77070;0.000;0.000;2024-03-22T03:48:46;15.60;;;8.00;;
86335;SDS011;77070;0.000;0.000;2024-03-22T03:51:13;19.30;;;10.90;;
86335;SDS011;77070;0.000;0.000;2024-03-22T03:53:40;15.50;;;8.60;;
86335;SDS011;77070;0.000;0.000;2024-03-22T03:56:07;20.00;;;11.00;;
86335;SDS011;77070;0.000;0.000;2024-03-22T03:58:34;18.30;;;9.80;;
86335;SDS011;77070;0.000;0.000;2024-03-22T04:01:07;16.80;;;10.70;;
86335;SDS011;77070;0.000;0.000;2024-03-22T04:03:35;18.80;;;10.60;;
86335;SDS011;77070;0.000;0.000;2024-03-22T04:06:02;19.90;;;11.00;;
86335;SDS011;77070;0.000;0.000;2024-03-22T04:08:29;15.60;;;9.90;;
86335;SDS011;77070;0.000;0.000;2024-03-22T04:10:59;19.60;;;10.60;;
86335;SDS011;77070;0.000;0.000;2024-03-22T04:13:26;20.80;;;11.30;;
86335;SDS011;77070;0.000;0.000;2024-03-22T04:15:54;19.30;;;10.90;;
86335;SDS011;77070;0.000;0.000;2024-03-22T04:18:25;17.70;;;10.50;;
86335;SDS011;77070;0.000;0.000;2024-03-22T04:20:58;17.10;;;9.70;;
86335;SDS011;77070;0.000;0.000;2024-03-22T04:23:26;16.70;;;9.40;;
86335;SDS011;77070;0.000;0.000;2024-03-22T04:25:57;16.00;;;9.60;;
86335;SDS011;77070;0.000;0.000;2024-03-22T04:28:26;16.10;;;8.40;;
86335;SDS011;77070;0.000;0.000;2024-03-22T04:30:54;19.30;;;10.90;;
86335;SDS011;77070;0.000;0.000;2024-03-22T04:33:21;17.80;;;10.50;;
86335;SDS011;77070;0.000;0.000;2024-03-22T04:35:48;18.40;;;10.40;;
86335;SDS011;77070;0.000;0.000;2024-03-22T04:38:15;18.60;;;10.50;;
86335;SDS011;77070;0.000;0.000;2024-03-22T04:40:42;17.00;;;9.90;;
86335;SDS011;77070;0.000;0.000;2024-03-22T04:43:09;16.30;;;9.80;;
86335;SDS011;77070;0.000;0.000;2024-03-22T04:45:36;15.60;;;9.10;;
86335;SDS011;77070;0.000;0.000;2024-03-22T04:48:04;18.60;;;10.50;;
86335;SDS011;77070;0.000;0.000;2024-03-22T04:50:31;21.10;;;12.60;;
86335;SDS011;77070;0.000;0.000;2024-03-22T04:52:58;21.80;;;11.20;;
86335;SDS011;77070;0.000;0.000;2024-03-22T04:55:25;19.50;;;11.50;;
86335;SDS011;77070;0.000;0.000;2024-03-22T04:57:52;18.10;;;9.70;;
86335;SDS011;77070;0.000;0.000;2024-03-22T05:00:19;17.80;;;9.80;;
86335;SDS011;77070;0.000;0.000;2024-03-22T05:02:46;20.60;;;11.70;;
86335;SDS011;77070;0.000;0.000;2024-03-22T05:05:14;21.30;;;11.90;;
86335;SDS011;77070;0.000;0.000;2024-03-22T05:07:41;21.50;;;11.70;;
86335;SDS011;77070;0.000;0.000;2024-03-22T05:10:08;19.70;;;10.30;;
86335;SDS011;77070;0.000;0.000;2024-03-22T05:12:36;19.80;;;11.10;;
86335;SDS011;77070;0.000;0.000;2024-03-22T05:15:03;18.90;;;9.40;;
86335;SDS011;77070;0.000;0.000;2024-03-22T05:17:31;16.70;;;9.80;;
86335;SDS011;77070;0.000;0.000;2024-03-22T05:19:59;19.20;;;9.10;;
86335;SDS011;77070;0.000;0.000;2024-03-22T05:22:26;17.80;;;10.50;;
86335;SDS011;77070;0.000;0.000;2024-03-22T05:24:54;18.00;;;9.30;;
86335;SDS011;77070;0.000;0.000;2024-03-22T05:27:21;18.20;;;10.10;;
86335;SDS011;77070;0.000;0.000;2024-03-22T05:29:48;22.40;;;10.80;;
86335;SDS011;77070;0.000;0.000;2024-03-22T05:32:15;22.30;;;11.00;;
86335;SDS011;77070;0.000;0.000;2024-03-22T05:34:43;16.40;;;8.50;;
86335;SDS011;77070;0.000;0.000;2024-03-22T05:37:10;15.00;;;8.30;;
86335;SDS011;77070;0.000;0.000;2024-03-22T05:39:38;16.30;;;9.00;;
86335;SDS011;77070;0.000;0.000;2024-03-22T05:42:07;18.90;;;10.10;;
86335;SDS011;77070;0.000;0.000;2024-03-22T05:44:34;19.40;;;10.30;;
86335;SDS011;77070;0.000;0.000;2024-03-22T05:47:01;19.10;;;10.60;;
86335;SDS011;77070;0.000;0.000;2024-03-22T05:49:28;17.70;;;10.20;;
86335;SDS011;77070;0.000;0.000;2024-03-22T05:51:56;17.70;;;9.90;;
86335;SDS011;77070;0.000;0.000;2024-03-22T05:54:23;17.00;;;8.60;;
86335;SDS011;77070;0.000;0.000;2024-03-22T05:56:50;16.00;;;9.20;;
86335;SDS011;77070;0.000;0.000;2024-03-22T05:59:17;14.50;;;8.10;;
86335;SDS011;77070;0.000;0.000;2024-03-22T06:01:44;29.50;;;13.80;;
86335;SDS011;77070;0.000;0.000;2024-03-22T06:04:11;25.90;;;13.30;;
86335;SDS011;77070;0.000;0.000;2024-03-22T06:06:38;28.40;;;15.30;;
86335;SDS011;77070;0.000;0.000;2024-03-22T06:09:05;19.20;;;10.20;;
86335;SDS011;77070;0.000;0.000;2024-03-22T06:11:35;62.90;;;28.30;;
86335;SDS011;77070;0.000;0.000;2024-03-22T06:14:02;38.70;;;17.80;;
86335;SDS011;77070;0.000;0.000;2024-03-22T06:16:30;25.30;;;12.50;;
86335;SDS011;77070;0.000;0.000;2024-03-22T06:18:57;42.90;;;20.70;;
86335;SDS011;77070;0.000;0.000;2024-03-22T06:21:24;53.80;;;24.90;;
86335;SDS011;77070;0.000;0.000;2024-03-22T06:23:52;44.00;;;20.60;;
86335;SDS011;77070;0.000;0.000;2024-03-22T06:26:19;39.50;;;19.20;;
86335;SDS011;77070;0.000;0.000;2024-03-22T06:28:46;30.20;;;16.20;;
86335;SDS011;77070;0.000;0.000;2024-03-22T06:31:13;74.20;;;35.70;;
86335;SDS011;77070;0.000;0.000;2024-03-22T06:33:41;54.70;;;24.70;;
86335;SDS011;77070;0.000;0.000;2024-03-22T06:36:07;53.70;;;25.00;;
86335;SDS011;77070;0.000;0.000;2024-03-22T06:38:34;50.00;;;22.20;;
86335;SDS011;77070;0.000;0.000;2024-03-22T06:41:01;49.30;;;23.20;;
86335;SDS011;77070;0.000;0.000;2024-03-22T06:43:30;41.00;;;19.30;;
86335;SDS011;77070;0.000;0.000;2024-03-22T06:45:57;28.10;;;15.70;;
86335;SDS011;77070;0.000;0.000;2024-03-22T06:48:24;23.70;;;12.80;;
86335;SDS011;77070;0.000;0.000;2024-03-22T06:50:52;24.40;;;13.20;;
86335;SDS011;77070;0.000;0.000;2024-03-22T06:53:19;23.50;;;12.00;;
86335;SDS011;77070;0.000;0.000;2024-03-22T06:55:47;20.70;;;11.70;;
86335;SDS011;77070;0.000;0.000;2024-03-22T06:58:14;21.10;;;12.70;;
86335;SDS011;77070;0.000;0.000;2024-03-22T07:00:40;25.70;;;13.30;;
86335;SDS011;77070;0.000;0.000;2024-03-22T07:03:08;20.90;;;12.30;;
86335;SDS011;77070;0.000;0.000;2024-03-22T07:05:35;20.80;;;12.10;;
86335;SDS011;77070;0.000;0.000;2024-03-22T07:08:02;19.50;;;12.00;;
86335;SDS011;77070;0.000;0.000;2024-03-22T07:10:30;19.90;;;11.10;;
86335;SDS011;77070;0.000;0.000;2024-03-22T07:12:58;21.10;;;12.10;;
86335;SDS011;77070;0.000;0.000;2024-03-22T07:15:25;22.00;;;12.30;;
86335;SDS011;77070;0.000;0.000;2024-03-22T07:17:52;19.60;;;11.60;;
86335;SDS011;77070;0.000;0.000;2024-03-22T07:20:19;23.10;;;12.80;;
86335;SDS011;77070;0.000;0.000;2024-03-22T07:22:47;20.40;;;11.80;;
86335;SDS011;77070;0.000;0.000;2024-03-22T07:25:14;20.60;;;11.80;;
86335;SDS011;77070;0.000;0.000;2024-03-22T07:27:41;20.10;;;11.60;;
86335;SDS011;77070;0.000;0.000;2024-03-22T07:30:08;20.20;;;12.40;;
86335;SDS011;77070;0.000;0.000;2024-03-22T07:32:36;23.80;;;13.60;;
86335;SDS011;77070;0.000;0.000;2024-03-22T07:35:04;21.40;;;11.90;;
86335;SDS011;77070;0.000;0.000;2024-03-22T07:37:31;19.70;;;12.00;;
86335;SDS011;77070;0.000;0.000;2024-03-22T07:39:58;22.90;;;13.00;;
86335;SDS011;77070;0.000;0.000;2024-03-22T07:42:25;20.20;;;11.60;;
86335;SDS011;77070;0.000;0.000;2024-03-22T07:44:52;16.00;;;9.50;;
86335;SDS011;77070;0.000;0.000;2024-03-22T07:47:19;18.20;;;9.40;;
86335;SDS011;77070;0.000;0.000;2024-03-22T07:49:46;19.90;;;11.20;;
86335;SDS011;77070;0.000;0.000;2024-03-22T07:52:13;21.30;;;12.20;;
86335;SDS011;77070;0.000;0.000;2024-03-22T07:54:40;18.10;;;11.00;;
86335;SDS011;77070;0.000;0.000;2024-03-22T07:57:07;19.20;;;11.10;;
86335;SDS011;77070;0.000;0.000;2024-03-22T07:59:35;19.70;;;11.70;;
86335;SDS011;77070;0.000;0.000;2024-03-22T08:02:02;22.50;;;12.40;;
86335;SDS011;77070;0.000;0.000;2024-03-22T08:04:29;19.30;;;11.30;;
86335;SDS011;77070;0.000;0.000;2024-03-22T08:06:56;24.50;;;13.60;;
86335;SDS011;77070;0.000;0.000;2024-03-22T08:09:24;20.60;;;11.60;;
86335;SDS011;77070;0.000;0.000;2024-03-22T08:11:51;22.30;;;11.30;;
86335;SDS011;77070;0.000;0.000;2024-03-22T08:14:18;18.60;;;10.80;;
86335;SDS011;77070;0.000;0.000;2024-03-22T08:16:45;22.20;;;11.20;;
86335;SDS011;77070;0.000;0.000;2024-03-22T08:19:16;22.30;;;11.20;;
86335;SDS011;77070;0.000;0.000;2024-03-22T08:21:44;21.50;;;12.50;;
86335;SDS011;77070;0.000;0.000;2024-03-22T08:24:10;21.70;;;11.30;;
86335;SDS011;77070;0.000;0.000;2024-03-22T08:26:38;19.20;;;10.90;;
86335;SDS011;77070;0.000;0.000;2024-03-22T08:29:05;20.10;;;11.50;;
86335;SDS011;77070;0.000;0.000;2024-03-22T08:31:32;17.90;;;10.90;;
86335;SDS011;77070;0.000;0.000;2024-03-22T08:33:59;20.60;;;11.40;;
86335;SDS011;77070;0.000;0.000;2024-03-22T08:36:30;20.90;;;11.10;;
86335;SDS011;77070;0.000;0.000;2024-03-22T08:38:57;21.70;;;12.40;;
86335;SDS011;77070;0.000;0.000;2024-03-22T08:41:24;23.40;;;12.00;;
86335;SDS011;77070;0.000;0.000;2024-03-22T08:43:52;21.60;;;12.80;;
86335;SDS011;77070;0.000;0.000;2024-03-22T08:46:19;20.70;;;11.80;;
86335;SDS011;77070;0.000;0.000;2024-03-22T08:53:41;22.50;;;11.40;;
86335;SDS011;77070;0.000;0.000;2024-03-22T08:56:08;19.50;;;11.00;;
86335;SDS011;77070;0.000;0.000;2024-03-22T08:58:35;15.20;;;9.30;;
86335;SDS011;77070;0.000;0.000;2024-03-22T09:01:07;16.80;;;9.50;;
86335;SDS011;77070;0.000;0.000;2024-03-22T09:03:36;20.60;;;11.60;;
86335;SDS011;77070;0.000;0.000;2024-03-22T09:06:03;18.00;;;10.00;;
86335;SDS011;77070;0.000;0.000;2024-03-22T09:08:31;18.40;;;10.70;;
86335;SDS011;77070;0.000;0.000;2024-03-22T09:10:59;15.00;;;9.50;;
86335;SDS011;77070;0.000;0.000;2024-03-22T09:13:26;17.40;;;9.70;;
86335;SDS011;77070;0.000;0.000;2024-03-22T09:15:57;17.40;;;9.60;;
86335;SDS011;77070;0.000;0.000;2024-03-22T09:18:25;14.20;;;8.20;;
86335;SDS011;77070;0.000;0.000;2024-03-22T09:20:53;18.20;;;10.30;;
86335;SDS011;77070;0.000;0.000;2024-03-22T09:23:20;15.90;;;9.40;;
86335;SDS011;77070;0.000;0.000;2024-03-22T09:25:48;17.00;;;9.00;;
86335;SDS011;77070;0.000;0.000;2024-03-22T09:28:15;16.90;;;10.10;;
86335;SDS011;77070;0.000;0.000;2024-03-22T09:30:42;19.20;;;10.30;;
86335;SDS011;77070;0.000;0.000;2024-03-22T09:33:10;17.30;;;10.90;;
86335;SDS011;77070;0.000;0.000;2024-03-22T09:35:37;16.30;;;10.30;;
86335;SDS011;77070;0.000;0.000;2024-03-22T09:38:04;17.70;;;9.70;;
86335;SDS011;77070;0.000;0.000;2024-03-22T09:40:31;16.00;;;10.20;;
86335;SDS011;77070;0.000;0.000;2024-03-22T09:43:01;14.30;;;8.90;;
86335;SDS011;77070;0.000;0.000;2024-03-22T09:45:30;17.70;;;9.90;;
86335;SDS011;77070;0.000;0.000;2024-03-22T09:47:58;16.00;;;9.30;;
86335;SDS011;77070;0.000;0.000;2024-03-22T09:50:32;15.40;;;8.40;;
86335;SDS011;77070;0.000;0.000;2024-03-22T09:53:02;15.30;;;8.60;;
86335;SDS011;77070;0.000;0.000;2024-03-22T09:55:38;14.00;;;8.10;;
86335;SDS011;77070;0.000;0.000;2024-03-22T09:58:34;17.20;;;8.90;;
86335;SDS011;77070;0.000;0.000;2024-03-22T10:01:06;19.70;;;9.30;;
86335;SDS011;77070;0.000;0.000;2024-03-22T10:03:34;16.30;;;9.20;;
86335;SDS011;77070;0.000;0.000;2024-03-22T10:06:03;13.70;;;8.60;;
86335;SDS011;77070;0.000;0.000;2024-03-22T10:08:31;15.60;;;8.70;;
86335;SDS011;77070;0.000;0.000;2024-03-22T10:11:01;13.30;;;7.20;;
86335;SDS011;77070;0.000;0.000;2024-03-22T10:13:30;17.70;;;9.20;;
86335;SDS011;77070;0.000;0.000;2024-03-22T10:15:57;18.40;;;9.90;;
86335;SDS011;77070;0.000;0.000;2024-03-22T10:18:25;14.60;;;8.80;;
86335;SDS011;77070;0.000;0.000;2024-03-22T10:21:03;16.70;;;9.50;;
86335;SDS011;77070;0.000;0.000;2024-03-22T10:23:32;13.20;;;8.10;;
86335;SDS011;77070;0.000;0.000;2024-03-22T10:25:59;15.50;;;8.00;;
86335;SDS011;77070;0.000;0.000;2024-03-22T10:28:27;18.00;;;9.40;;
86335;SDS011;77070;0.000;0.000;2024-03-22T10:30:54;17.10;;;10.00;;
86335;SDS011;77070;0.000;0.000;2024-03-22T10:33:22;14.50;;;8.30;;
86335;SDS011;77070;0.000;0.000;2024-03-22T10:35:53;15.80;;;9.70;;
86335;SDS011;77070;0.000;0.000;2024-03-22T10:38:21;17.00;;;9.80;;
86335;SDS011;77070;0.000;0.000;2024-03-22T10:40:49;16.90;;;9.50;;
86335;SDS011;77070;0.000;0.000;2024-03-22T10:43:16;15.70;;;8.20;;
86335;SDS011;77070;0.000;0.000;2024-03-22T10:45:43;16.90;;;10.00;;
86335;SDS011;77070;0.000;0.000;2024-03-22T10:48:17;16.20;;;9.80;;
86335;SDS011;77070;0.000;0.000;2024-03-22T10:50:47;13.40;;;8.20;;
86335;SDS011;77070;0.000;0.000;2024-03-22T10:53:17;12.30;;;7.30;;
86335;SDS011;77070;0.000;0.000;2024-03-22T10:55:48;13.50;;;8.30;;
86335;SDS011;77070;0.000;0.000;2024-03-22T10:58:22;15.20;;;8.90;;
86335;SDS011;77070;0.000;0.000;2024-03-22T11:00:54;15.40;;;8.80;;
86335;SDS011;77070;0.000;0.000;2024-03-22T11:03:24;15.10;;;10.20;;
86335;SDS011;77070;0.000;0.000;2024-03-22T11:05:55;18.20;;;10.60;;
86335;SDS011;77070;0.000;0.000;2024-03-22T11:10:50;20.30;;;11.20;;
86335;SDS011;77070;0.000;0.000;2024-03-22T11:13:17;12.30;;;7.60;;
86335;SDS011;77070;0.000;0.000;2024-03-22T11:15:51;12.70;;;7.70;;
86335;SDS011;77070;0.000;0.000;2024-03-22T11:18:18;14.70;;;8.60;;
86335;SDS011;77070;0.000;0.000;2024-03-22T11:20:45;18.90;;;9.90;;
86335;SDS011;77070;0.000;0.000;2024-03-22T11:23:12;11.70;;;6.80;;
86335;SDS011;77070;0.000;0.000;2024-03-22T11:25:40;14.40;;;8.50;;
86335;SDS011;77070;0.000;0.000;2024-03-22T11:28:07;14.90;;;9.30;;
86335;SDS011;77070;0.000;0.000;2024-03-22T11:30:35;14.00;;;8.20;;
86335;SDS011;77070;0.000;0.000;2024-03-22T11:33:02;13.90;;;8.40;;
86335;SDS011;77070;0.000;0.000;2024-03-22T11:35:32;12.60;;;8.50;;
86335;SDS011;77070;0.000;0.000;2024-03-22T11:38:00;12.30;;;7.90;;
86335;SDS011;77070;0.000;0.000;2024-03-22T11:40:27;11.00;;;6.40;;
86335;SDS011;77070;0.000;0.000;2024-03-22T11:42:56;10.90;;;6.70;;
86335;SDS011;77070;0.000;0.000;2024-03-22T11:45:24;16.20;;;8.90;;
86335;SDS011;77070;0.000;0.000;2024-03-22T11:47:53;9.60;;;5.80;;
86335;SDS011;77070;0.000;0.000;2024-03-22T11:50:20;7.30;;;5.00;;
86335;SDS011;77070;0.000;0.000;2024-03-22T11:52:47;11.60;;;6.30;;
86335;SDS011;77070;0.000;0.000;2024-03-22T11:55:14;11.10;;;5.60;;
86335;SDS011;77070;0.000;0.000;2024-03-22T11:57:47;8.80;;;5.60;;
86335;SDS011;77070;0.000;0.000;2024-03-22T12:00:18;9.10;;;5.30;;
86335;SDS011;77070;0.000;0.000;2024-03-22T12:02:46;10.80;;;6.80;;
86335;SDS011;77070;0.000;0.000;2024-03-22T12:05:12;8.50;;;7.50;;
86335;SDS011;77070;0.000;0.000;2024-03-22T12:07:40;11.20;;;6.50;;
86335;SDS011;77070;0.000;0.000;2024-03-22T12:10:08;7.70;;;5.50;;
86335;SDS011;77070;0.000;0.000;2024-03-22T12:12:35;8.90;;;5.40;;
86335;SDS011;77070;0.000;0.000;2024-03-22T12:15:05;12.80;;;6.10;;
86335;SDS011;77070;0.000;0.000;2024-03-22T12:20:08;8.30;;;5.10;;
86335;SDS011;77070;0.000;0.000;2024-03-22T12:22:35;8.20;;;5.10;;
86335;SDS011;77070;0.000;0.000;2024-03-22T12:25:07;8.50;;;5.40;;
86335;SDS011;77070;0.000;0.000;2024-03-22T12:27:36;8.60;;;5.70;;
86335;SDS011;77070;0.000;0.000;2024-03-22T12:30:05;6.70;;;4.70;;
86335;SDS011;77070;0.000;0.000;2024-03-22T12:32:34;9.00;;;5.10;;
86335;SDS011;77070;0.000;0.000;2024-03-22T12:35:23;8.00;;;5.20;;
86335;SDS011;77070;0.000;0.000;2024-03-22T12:37:51;8.70;;;5.20;;
86335;SDS011;77070;0.000;0.000;2024-03-22T12:40:20;8.50;;;4.80;;
86335;SDS011;77070;0.000;0.000;2024-03-22T12:42:47;8.90;;;5.30;;
86335;SDS011;77070;0.000;0.000;2024-03-22T12:45:14;6.50;;;4.00;;
86335;SDS011;77070;0.000;0.000;2024-03-22T12:47:41;6.20;;;4.00;;
86335;SDS011;77070;0.000;0.000;2024-03-22T12:50:08;7.10;;;4.50;;
86335;SDS011;77070;0.000;0.000;2024-03-22T12:52:37;8.40;;;4.90;;
86335;SDS011;77070;0.000;0.000;2024-03-22T12:55:05;7.00;;;4.30;;
86335;SDS011;77070;0.000;0.000;2024-03-22T12:57:36;6.80;;;3.80;;
86335;SDS011;77070;0.000;0.000;2024-03-22T13:00:03;5.40;;;4.10;;
86335;SDS011;77070;0.000;0.000;2024-03-22T13:02:34;5.50;;;3.80;;
86335;SDS011;77070;0.000;0.000;2024-03-22T13:05:02;5.20;;;3.30;;
86335;SDS011;77070;0.000;0.000;2024-03-22T13:07:30;6.80;;;4.60;;
86335;SDS011;77070;0.000;0.000;2024-03-22T13:12:29;6.00;;;4.20;;
86335;SDS011;77070;0.000;0.000;2024-03-22T13:15:01;5.60;;;3.80;;
86335;SDS011;77070;0.000;0.000;2024-03-22T13:17:30;6.20;;;4.00;;
86335;SDS011;77070;0.000;0.000;2024-03-22T13:19:59;6.70;;;3.60;;
86335;SDS011;77070;0.000;0.000;2024-03-22T13:22:30;6.10;;;4.40;;
86335;SDS011;77070;0.000;0.000;2024-03-22T13:24:57;7.00;;;4.80;;
86335;SDS011;77070;0.000;0.000;2024-03-22T13:27:25;5.60;;;4.10;;
86335;SDS011;77070;0.000;0.000;2024-03-22T13:29:53;6.40;;;4.00;;
86335;SDS011;77070;0.000;0.000;2024-03-22T13:32:20;5.50;;;3.70;;
86335;SDS011;77070;0.000;0.000;2024-03-22T13:34:47;6.60;;;4.60;;
86335;SDS011;77070;0.000;0.000;2024-03-22T13:37:19;7.20;;;6.40;;
86335;SDS011;77070;0.000;0.000;2024-03-22T13:39:50;6.20;;;3.60;;
86335;SDS011;77070;0.000;0.000;2024-03-22T13:42:17;5.60;;;3.40;;
86335;SDS011;77070;0.000;0.000;2024-03-22T13:44:44;7.00;;;4.10;;
86335;SDS011;77070;0.000;0.000;2024-03-22T13:47:11;5.10;;;3.10;;
86335;SDS011;77070;0.000;0.000;2024-03-22T13:49:39;5.30;;;3.80;;
86335;SDS011;77070;0.000;0.000;2024-03-22T13:52:11;8.90;;;5.90;;
86335;SDS011;77070;0.000;0.000;2024-03-22T13:54:38;6.50;;;4.60;;
86335;SDS011;77070;0.000;0.000;2024-03-22T13:57:06;5.40;;;4.10;;
86335;SDS011;77070;0.000;0.000;2024-03-22T13:59:33;6.40;;;4.40;;
86335;SDS011;77070;0.000;0.000;2024-03-22T14:02:01;7.80;;;3.90;;
86335;SDS011;77070;0.000;0.000;2024-03-22T14:04:28;7.70;;;5.10;;
86335;SDS011;77070;0.000;0.000;2024-03-22T14:06:55;8.40;;;4.90;;
86335;SDS011;77070;0.000;0.000;2024-03-22T14:09:23;8.80;;;5.20;;
86335;SDS011;77070;0.000;0.000;2024-03-22T14:11:50;7.70;;;4.50;;
86335;SDS011;77070;0.000;0.000;2024-03-22T14:14:17;5.90;;;3.40;;
86335;SDS011;77070;0.000;0.000;2024-03-22T14:16:44;7.70;;;4.40;;
86335;SDS011;77070;0.000;0.000;2024-03-22T14:19:11;7.30;;;4.30;;
86335;SDS011;77070;0.000;0.000;2024-03-22T14:21:38;6.30;;;3.60;;
86335;SDS011;77070;0.000;0.000;2024-03-22T14:24:05;8.00;;;4.00;;
86335;SDS011;77070;0.000;0.000;2024-03-22T14:26:34;5.20;;;3.10;;
86335;SDS011;77070;0.000;0.000;2024-03-22T14:29:01;5.60;;;3.60;;
86335;SDS011;77070;0.000;0.000;2024-03-22T14:31:28;7.70;;;4.00;;
86335;SDS011;77070;0.000;0.000;2024-03-22T14:33:55;8.00;;;4.60;;
86335;SDS011;77070;0.000;0.000;2024-03-22T14:36:23;8.90;;;5.30;;
86335;SDS011;77070;0.000;0.000;2024-03-22T14:38:50;5.40;;;3.50;;
86335;SDS011;77070;0.000;0.000;2024-03-22T14:41:17;7.30;;;4.70;;
86335;SDS011;77070;0.000;0.000;2024-03-22T14:43:45;6.70;;;4.40;;
86335;SDS011;77070;0.000;0.000;2024-03-22T14:46:12;7.30;;;5.10;;
86335;SDS011;77070;0.000;0.000;2024-03-22T14:48:39;9.10;;;5.40;;
86335;SDS011;77070;0.000;0.000;2024-03-22T14:51:06;7.20;;;4.70;;
86335;SDS011;77070;0.000;0.000;2024-03-22T14:53:36;7.40;;;4.50;;
86335;SDS011;77070;0.000;0.000;2024-03-22T14:56:04;8.20;;;4.90;;
86335;SDS011;77070;0.000;0.000;2024-03-22T14:58:31;6.90;;;4.40;;
86335;SDS011;77070;0.000;0.000;2024-03-22T15:01:02;8.80;;;4.50;;